sensor_id;sensor_type;location;lat;lon;timestamp;temperature;humidity
50989;DHT22;37008;52.210;21.112;2024-01-11T00:00:48;-6.50;99.90
50989;DHT22;37008;52.210;21.112;2024-01-11T00:03:14;-5.10;99.90
50989;DHT22;37008;52.210;21.112;2024-01-11T00:05:40;-6.60;99.90
50989;DHT22;37008;52.210;21.112;2024-01-11T00:08:07;-6.60;99.90
50989;DHT22;37008;52.210;21.112;2024-01-11T00:10:32;-6.50;99.90
50989;DHT22;37008;52.210;21.112;2024-01-11T00:12:58;-6.60;99.90
50989;DHT22;37008;52.210;21.112;2024-01-11T00:15:26;-6.50;99.90
50989;DHT22;37008;52.210;21.112;2024-01-11T00:17:51;-6.60;99.90
50989;DHT22;37008;52.210;21.112;2024-01-11T00:20:17;-6.00;99.90
50989;DHT22;37008;52.210;21.112;2024-01-11T00:22:43;-6.60;99.90
50989;DHT22;37008;52.210;21.112;2024-01-11T00:25:08;-6.40;99.90
50989;DHT22;37008;52.210;21.112;2024-01-11T00:27:35;-6.50;99.90
50989;DHT22;37008;52.210;21.112;2024-01-11T00:30:01;-5.80;99.90
50989;DHT22;37008;52.210;21.112;2024-01-11T00:32:26;-6.10;99.90
50989;DHT22;37008;52.210;21.112;2024-01-11T00:34:52;-6.50;99.90
50989;DHT22;37008;52.210;21.112;2024-01-11T00:37:18;-5.80;99.90
50989;DHT22;37008;52.210;21.112;2024-01-11T00:39:43;-6.40;99.90
50989;DHT22;37008;52.210;21.112;2024-01-11T00:42:09;-6.40;99.90
50989;DHT22;37008;52.210;21.112;2024-01-11T00:44:34;-6.40;99.90
50989;DHT22;37008;52.210;21.112;2024-01-11T00:47:00;-6.30;99.90
50989;DHT22;37008;52.210;21.112;2024-01-11T00:49:26;-6.30;99.90
50989;DHT22;37008;52.210;21.112;2024-01-11T00:51:51;-6.30;99.90
50989;DHT22;37008;52.210;21.112;2024-01-11T00:54:17;-6.30;99.90
50989;DHT22;37008;52.210;21.112;2024-01-11T00:56:42;-6.30;99.90
50989;DHT22;37008;52.210;21.112;2024-01-11T00:59:08;-6.30;99.90
50989;DHT22;37008;52.210;21.112;2024-01-11T01:01:34;-6.20;99.90
50989;DHT22;37008;52.210;21.112;2024-01-11T01:03:59;-6.30;99.90
50989;DHT22;37008;52.210;21.112;2024-01-11T01:06:25;-6.30;99.90
50989;DHT22;37008;52.210;21.112;2024-01-11T01:08:50;-6.20;99.90
50989;DHT22;37008;52.210;21.112;2024-01-11T01:11:16;-6.20;99.90
50989;DHT22;37008;52.210;21.112;2024-01-11T01:13:41;-6.20;99.90
50989;DHT22;37008;52.210;21.112;2024-01-11T01:16:07;-6.20;99.90
50989;DHT22;37008;52.210;21.112;2024-01-11T01:18:33;-6.20;99.90
50989;DHT22;37008;52.210;21.112;2024-01-11T01:20:58;-6.20;99.90
50989;DHT22;37008;52.210;21.112;2024-01-11T01:23:24;-6.10;99.90
50989;DHT22;37008;52.210;21.112;2024-01-11T01:25:49;-6.10;99.90
50989;DHT22;37008;52.210;21.112;2024-01-11T01:28:15;-6.00;99.90
50989;DHT22;37008;52.210;21.112;2024-01-11T01:30:40;-5.90;99.90
50989;DHT22;37008;52.210;21.112;2024-01-11T01:33:06;-6.00;99.90
50989;DHT22;37008;52.210;21.112;2024-01-11T01:35:32;-5.90;99.90
50989;DHT22;37008;52.210;21.112;2024-01-11T01:37:58;-5.90;99.90
50989;DHT22;37008;52.210;21.112;2024-01-11T01:40:24;-5.90;99.90
50989;DHT22;37008;52.210;21.112;2024-01-11T01:42:49;-5.90;99.90
50989;DHT22;37008;52.210;21.112;2024-01-11T01:45:15;-5.90;99.90
50989;DHT22;37008;52.210;21.112;2024-01-11T01:47:42;-5.90;99.90
50989;DHT22;37008;52.210;21.112;2024-01-11T01:50:10;-5.90;99.90
50989;DHT22;37008;52.210;21.112;2024-01-11T01:52:37;-5.90;99.90
50989;DHT22;37008;52.210;21.112;2024-01-11T01:55:05;-5.80;99.90
50989;DHT22;37008;52.210;21.112;2024-01-11T01:57:33;-5.80;99.90
50989;DHT22;37008;52.210;21.112;2024-01-11T02:00:00;-5.80;99.90
50989;DHT22;37008;52.210;21.112;2024-01-11T02:02:27;-5.80;99.90
50989;DHT22;37008;52.210;21.112;2024-01-11T02:04:57;-5.80;99.90
50989;DHT22;37008;52.210;21.112;2024-01-11T02:07:23;-5.70;99.90
50989;DHT22;37008;52.210;21.112;2024-01-11T02:09:50;-5.80;99.90
50989;DHT22;37008;52.210;21.112;2024-01-11T02:12:17;-5.80;99.90
50989;DHT22;37008;52.210;21.112;2024-01-11T02:14:43;-5.80;99.90
50989;DHT22;37008;52.210;21.112;2024-01-11T02:17:09;-5.90;99.90
50989;DHT22;37008;52.210;21.112;2024-01-11T02:19:35;-5.70;99.90
50989;DHT22;37008;52.210;21.112;2024-01-11T02:22:05;-5.70;99.90
50989;DHT22;37008;52.210;21.112;2024-01-11T02:24:31;-5.80;99.90
50989;DHT22;37008;52.210;21.112;2024-01-11T02:27:02;-5.70;99.90
50989;DHT22;37008;52.210;21.112;2024-01-11T02:29:29;-5.70;99.90
50989;DHT22;37008;52.210;21.112;2024-01-11T02:31:55;-5.70;99.90
50989;DHT22;37008;52.210;21.112;2024-01-11T02:34:23;-5.70;99.90
50989;DHT22;37008;52.210;21.112;2024-01-11T02:36:50;-5.70;99.90
50989;DHT22;37008;52.210;21.112;2024-01-11T02:39:17;-5.70;99.90
50989;DHT22;37008;52.210;21.112;2024-01-11T02:41:44;-5.70;99.90
50989;DHT22;37008;52.210;21.112;2024-01-11T02:44:10;-5.70;99.90
50989;DHT22;37008;52.210;21.112;2024-01-11T02:46:35;-5.70;99.90
50989;DHT22;37008;52.210;21.112;2024-01-11T02:49:01;-5.70;99.90
50989;DHT22;37008;52.210;21.112;2024-01-11T02:51:27;-5.60;99.90
50989;DHT22;37008;52.210;21.112;2024-01-11T02:53:52;-5.70;99.90
50989;DHT22;37008;52.210;21.112;2024-01-11T02:56:18;-5.70;99.90
50989;DHT22;37008;52.210;21.112;2024-01-11T02:58:43;-5.70;99.90
50989;DHT22;37008;52.210;21.112;2024-01-11T03:01:09;-5.70;99.90
50989;DHT22;37008;52.210;21.112;2024-01-11T03:03:35;-5.20;99.90
50989;DHT22;37008;52.210;21.112;2024-01-11T03:06:01;-5.70;99.90
50989;DHT22;37008;52.210;21.112;2024-01-11T03:08:26;-5.70;99.90
50989;DHT22;37008;52.210;21.112;2024-01-11T03:10:52;-5.70;99.90
50989;DHT22;37008;52.210;21.112;2024-01-11T03:13:17;-5.70;99.90
50989;DHT22;37008;52.210;21.112;2024-01-11T03:15:43;-5.70;99.90
50989;DHT22;37008;52.210;21.112;2024-01-11T03:18:12;-5.70;99.90
50989;DHT22;37008;52.210;21.112;2024-01-11T03:20:38;-5.10;99.90
50989;DHT22;37008;52.210;21.112;2024-01-11T03:23:03;-5.70;99.90
50989;DHT22;37008;52.210;21.112;2024-01-11T03:25:29;-5.60;99.90
50989;DHT22;37008;52.210;21.112;2024-01-11T03:27:55;-5.60;99.90
50989;DHT22;37008;52.210;21.112;2024-01-11T03:30:21;-5.60;99.90
50989;DHT22;37008;52.210;21.112;2024-01-11T03:32:46;-5.50;99.90
50989;DHT22;37008;52.210;21.112;2024-01-11T03:35:12;-5.50;99.90
50989;DHT22;37008;52.210;21.112;2024-01-11T03:37:37;-5.50;99.90
50989;DHT22;37008;52.210;21.112;2024-01-11T03:40:03;-5.50;99.90
50989;DHT22;37008;52.210;21.112;2024-01-11T03:42:29;-5.50;99.90
50989;DHT22;37008;52.210;21.112;2024-01-11T03:44:55;-5.50;99.90
50989;DHT22;37008;52.210;21.112;2024-01-11T03:47:20;-5.50;99.90
50989;DHT22;37008;52.210;21.112;2024-01-11T03:49:46;-5.50;99.90
50989;DHT22;37008;52.210;21.112;2024-01-11T03:52:12;-5.50;99.90
50989;DHT22;37008;52.210;21.112;2024-01-11T03:54:37;-5.50;99.90
50989;DHT22;37008;52.210;21.112;2024-01-11T03:57:03;-5.60;99.90
50989;DHT22;37008;52.210;21.112;2024-01-11T03:59:29;-5.60;99.90
50989;DHT22;37008;52.210;21.112;2024-01-11T04:01:55;-5.60;99.90
50989;DHT22;37008;52.210;21.112;2024-01-11T04:04:21;-5.60;99.90
50989;DHT22;37008;52.210;21.112;2024-01-11T04:06:47;-5.60;99.90
50989;DHT22;37008;52.210;21.112;2024-01-11T04:09:13;-5.50;99.90
50989;DHT22;37008;52.210;21.112;2024-01-11T04:11:39;-5.60;99.90
50989;DHT22;37008;52.210;21.112;2024-01-11T04:14:04;-5.60;99.90
50989;DHT22;37008;52.210;21.112;2024-01-11T04:16:30;-5.60;99.90
50989;DHT22;37008;52.210;21.112;2024-01-11T04:18:56;-5.60;99.90
50989;DHT22;37008;52.210;21.112;2024-01-11T04:21:22;-5.50;99.90
50989;DHT22;37008;52.210;21.112;2024-01-11T04:23:48;-5.60;99.90
50989;DHT22;37008;52.210;21.112;2024-01-11T04:26:14;-5.50;99.90
50989;DHT22;37008;52.210;21.112;2024-01-11T04:28:40;-5.60;99.90
50989;DHT22;37008;52.210;21.112;2024-01-11T04:31:08;-5.60;99.90
50989;DHT22;37008;52.210;21.112;2024-01-11T04:33:33;-5.60;99.90
50989;DHT22;37008;52.210;21.112;2024-01-11T04:35:59;-5.60;99.90
50989;DHT22;37008;52.210;21.112;2024-01-11T04:38:25;-5.70;99.90
50989;DHT22;37008;52.210;21.112;2024-01-11T04:40:50;-5.40;99.90
50989;DHT22;37008;52.210;21.112;2024-01-11T04:43:16;-5.70;99.90
50989;DHT22;37008;52.210;21.112;2024-01-11T04:45:41;-5.70;99.90
50989;DHT22;37008;52.210;21.112;2024-01-11T04:48:07;-5.30;99.90
50989;DHT22;37008;52.210;21.112;2024-01-11T04:50:32;-5.60;99.90
50989;DHT22;37008;52.210;21.112;2024-01-11T04:52:58;-5.70;99.90
50989;DHT22;37008;52.210;21.112;2024-01-11T04:55:24;-5.60;99.90
50989;DHT22;37008;52.210;21.112;2024-01-11T04:57:49;-5.60;99.90
50989;DHT22;37008;52.210;21.112;2024-01-11T05:00:15;-5.60;99.90
50989;DHT22;37008;52.210;21.112;2024-01-11T05:02:41;-5.60;99.90
50989;DHT22;37008;52.210;21.112;2024-01-11T05:05:06;-5.30;99.90
50989;DHT22;37008;52.210;21.112;2024-01-11T05:07:32;-5.60;99.90
50989;DHT22;37008;52.210;21.112;2024-01-11T05:09:57;-5.70;99.90
50989;DHT22;37008;52.210;21.112;2024-01-11T05:12:23;-5.60;99.90
50989;DHT22;37008;52.210;21.112;2024-01-11T05:14:49;-5.60;99.90
50989;DHT22;37008;52.210;21.112;2024-01-11T05:17:14;-5.60;99.90
50989;DHT22;37008;52.210;21.112;2024-01-11T05:19:40;-5.60;99.90
50989;DHT22;37008;52.210;21.112;2024-01-11T05:22:05;-5.60;99.90
50989;DHT22;37008;52.210;21.112;2024-01-11T05:24:31;-5.50;99.90
50989;DHT22;37008;52.210;21.112;2024-01-11T05:26:56;-5.50;99.90
50989;DHT22;37008;52.210;21.112;2024-01-11T05:29:23;-4.70;99.90
50989;DHT22;37008;52.210;21.112;2024-01-11T05:31:49;-5.50;99.90
50989;DHT22;37008;52.210;21.112;2024-01-11T05:34:14;-5.40;99.90
50989;DHT22;37008;52.210;21.112;2024-01-11T05:36:40;-5.40;99.90
50989;DHT22;37008;52.210;21.112;2024-01-11T05:39:05;-5.40;99.90
50989;DHT22;37008;52.210;21.112;2024-01-11T05:41:31;-5.40;99.90
50989;DHT22;37008;52.210;21.112;2024-01-11T05:43:57;-5.40;99.90
50989;DHT22;37008;52.210;21.112;2024-01-11T05:46:22;-5.40;99.90
50989;DHT22;37008;52.210;21.112;2024-01-11T05:48:48;-5.40;99.90
50989;DHT22;37008;52.210;21.112;2024-01-11T05:51:13;-5.40;99.90
50989;DHT22;37008;52.210;21.112;2024-01-11T05:53:39;-5.40;99.90
50989;DHT22;37008;52.210;21.112;2024-01-11T05:56:08;-5.30;99.90
50989;DHT22;37008;52.210;21.112;2024-01-11T05:58:35;-5.30;99.90
50989;DHT22;37008;52.210;21.112;2024-01-11T06:01:02;-5.30;99.90
50989;DHT22;37008;52.210;21.112;2024-01-11T06:03:28;-5.30;99.90
50989;DHT22;37008;52.210;21.112;2024-01-11T06:05:53;-5.20;99.90
50989;DHT22;37008;52.210;21.112;2024-01-11T06:08:19;-5.30;99.90
50989;DHT22;37008;52.210;21.112;2024-01-11T06:10:44;-5.20;99.90
50989;DHT22;37008;52.210;21.112;2024-01-11T06:13:10;-5.20;99.90
50989;DHT22;37008;52.210;21.112;2024-01-11T06:15:36;-5.10;99.90
50989;DHT22;37008;52.210;21.112;2024-01-11T06:18:01;-5.20;99.90
50989;DHT22;37008;52.210;21.112;2024-01-11T06:20:27;-5.20;99.90
50989;DHT22;37008;52.210;21.112;2024-01-11T06:22:53;-5.20;99.90
50989;DHT22;37008;52.210;21.112;2024-01-11T06:25:18;-5.20;99.90
50989;DHT22;37008;52.210;21.112;2024-01-11T06:27:44;-5.20;99.90
50989;DHT22;37008;52.210;21.112;2024-01-11T06:30:10;-5.20;99.90
50989;DHT22;37008;52.210;21.112;2024-01-11T06:32:36;-5.10;99.90
50989;DHT22;37008;52.210;21.112;2024-01-11T06:35:01;-5.10;99.90
50989;DHT22;37008;52.210;21.112;2024-01-11T06:37:28;-5.10;99.90
50989;DHT22;37008;52.210;21.112;2024-01-11T06:39:53;-4.70;99.90
50989;DHT22;37008;52.210;21.112;2024-01-11T06:42:19;-5.10;99.90
50989;DHT22;37008;52.210;21.112;2024-01-11T06:44:45;-5.10;99.90
50989;DHT22;37008;52.210;21.112;2024-01-11T06:47:10;-5.00;99.90
50989;DHT22;37008;52.210;21.112;2024-01-11T06:49:39;-5.10;99.90
50989;DHT22;37008;52.210;21.112;2024-01-11T06:52:06;-5.20;99.90
50989;DHT22;37008;52.210;21.112;2024-01-11T06:54:31;-5.00;99.90
50989;DHT22;37008;52.210;21.112;2024-01-11T06:56:57;-4.90;99.90
50989;DHT22;37008;52.210;21.112;2024-01-11T06:59:23;-2.90;99.90
50989;DHT22;37008;52.210;21.112;2024-01-11T07:01:49;-4.90;99.90
50989;DHT22;37008;52.210;21.112;2024-01-11T07:04:15;-5.00;99.90
50989;DHT22;37008;52.210;21.112;2024-01-11T07:06:40;-4.70;99.90
50989;DHT22;37008;52.210;21.112;2024-01-11T07:09:06;-4.90;99.90
50989;DHT22;37008;52.210;21.112;2024-01-11T07:11:32;-4.80;99.90
50989;DHT22;37008;52.210;21.112;2024-01-11T07:13:58;-4.80;99.90
50989;DHT22;37008;52.210;21.112;2024-01-11T07:16:24;-4.80;99.90
50989;DHT22;37008;52.210;21.112;2024-01-11T07:18:49;-4.70;99.90
50989;DHT22;37008;52.210;21.112;2024-01-11T07:21:24;-4.70;99.90
50989;DHT22;37008;52.210;21.112;2024-01-11T07:24:01;-4.70;99.90
50989;DHT22;37008;52.210;21.112;2024-01-11T07:26:26;-4.70;99.90
50989;DHT22;37008;52.210;21.112;2024-01-11T07:28:53;-4.60;99.90
50989;DHT22;37008;52.210;21.112;2024-01-11T07:31:21;-4.60;99.90
50989;DHT22;37008;52.210;21.112;2024-01-11T07:33:47;-4.60;99.90
50989;DHT22;37008;52.210;21.112;2024-01-11T07:36:13;-4.60;99.90
50989;DHT22;37008;52.210;21.112;2024-01-11T07:38:39;-4.50;99.90
50989;DHT22;37008;52.210;21.112;2024-01-11T07:41:04;-4.50;99.90
50989;DHT22;37008;52.210;21.112;2024-01-11T07:43:30;-4.50;99.90
50989;DHT22;37008;52.210;21.112;2024-01-11T07:45:57;-4.40;99.90
50989;DHT22;37008;52.210;21.112;2024-01-11T07:48:23;-4.40;99.90
50989;DHT22;37008;52.210;21.112;2024-01-11T07:50:49;-4.30;99.90
50989;DHT22;37008;52.210;21.112;2024-01-11T07:53:15;-4.40;99.90
50989;DHT22;37008;52.210;21.112;2024-01-11T07:55:41;-4.40;99.90
50989;DHT22;37008;52.210;21.112;2024-01-11T07:58:07;-4.30;99.90
50989;DHT22;37008;52.210;21.112;2024-01-11T08:00:32;-4.40;99.90
50989;DHT22;37008;52.210;21.112;2024-01-11T08:02:59;-4.30;99.90
50989;DHT22;37008;52.210;21.112;2024-01-11T08:05:24;-4.30;99.90
50989;DHT22;37008;52.210;21.112;2024-01-11T08:07:50;-4.30;99.90
50989;DHT22;37008;52.210;21.112;2024-01-11T08:10:16;-4.30;99.90
50989;DHT22;37008;52.210;21.112;2024-01-11T08:12:42;-3.70;99.90
50989;DHT22;37008;52.210;21.112;2024-01-11T08:15:08;-4.20;99.90
50989;DHT22;37008;52.210;21.112;2024-01-11T08:17:47;-4.20;99.90
50989;DHT22;37008;52.210;21.112;2024-01-11T08:20:12;-4.10;99.90
50989;DHT22;37008;52.210;21.112;2024-01-11T08:22:42;-4.10;99.90
50989;DHT22;37008;52.210;21.112;2024-01-11T08:25:09;-4.10;99.90
50989;DHT22;37008;52.210;21.112;2024-01-11T08:27:35;-4.00;99.90
50989;DHT22;37008;52.210;21.112;2024-01-11T08:30:01;-4.40;99.90
50989;DHT22;37008;52.210;21.112;2024-01-11T08:32:27;-4.00;99.90
50989;DHT22;37008;52.210;21.112;2024-01-11T08:34:54;-4.00;99.90
50989;DHT22;37008;52.210;21.112;2024-01-11T08:37:19;-3.90;99.90
50989;DHT22;37008;52.210;21.112;2024-01-11T08:39:45;-3.90;99.90
50989;DHT22;37008;52.210;21.112;2024-01-11T08:42:12;-3.90;99.90
50989;DHT22;37008;52.210;21.112;2024-01-11T08:44:41;-3.80;99.90
50989;DHT22;37008;52.210;21.112;2024-01-11T08:47:07;-3.80;99.90
50989;DHT22;37008;52.210;21.112;2024-01-11T08:49:32;-3.80;99.90
50989;DHT22;37008;52.210;21.112;2024-01-11T08:51:58;-3.80;99.90
50989;DHT22;37008;52.210;21.112;2024-01-11T08:54:23;-3.80;99.90
50989;DHT22;37008;52.210;21.112;2024-01-11T08:56:49;-3.70;99.90
50989;DHT22;37008;52.210;21.112;2024-01-11T08:59:15;-3.60;99.90
50989;DHT22;37008;52.210;21.112;2024-01-11T09:01:40;-3.70;99.90
50989;DHT22;37008;52.210;21.112;2024-01-11T09:04:06;-3.60;99.90
50989;DHT22;37008;52.210;21.112;2024-01-11T09:06:33;-3.60;99.90
50989;DHT22;37008;52.210;21.112;2024-01-11T09:08:59;-3.50;99.90
50989;DHT22;37008;52.210;21.112;2024-01-11T09:11:25;-3.10;99.90
50989;DHT22;37008;52.210;21.112;2024-01-11T09:13:50;-3.50;99.90
50989;DHT22;37008;52.210;21.112;2024-01-11T09:16:16;-3.40;99.90
50989;DHT22;37008;52.210;21.112;2024-01-11T09:18:43;-3.40;99.90
50989;DHT22;37008;52.210;21.112;2024-01-11T09:21:09;-3.30;99.90
50989;DHT22;37008;52.210;21.112;2024-01-11T09:23:35;-3.30;99.90
50989;DHT22;37008;52.210;21.112;2024-01-11T09:26:01;-3.30;99.90
50989;DHT22;37008;52.210;21.112;2024-01-11T09:28:26;-3.20;99.90
50989;DHT22;37008;52.210;21.112;2024-01-11T09:30:52;-3.20;99.90
50989;DHT22;37008;52.210;21.112;2024-01-11T09:33:17;-3.20;99.90
50989;DHT22;37008;52.210;21.112;2024-01-11T09:35:43;-3.10;99.90
50989;DHT22;37008;52.210;21.112;2024-01-11T09:38:09;-3.10;99.90
50989;DHT22;37008;52.210;21.112;2024-01-11T09:40:34;-2.90;99.90
50989;DHT22;37008;52.210;21.112;2024-01-11T09:43:03;-2.90;99.90
50989;DHT22;37008;52.210;21.112;2024-01-11T09:45:29;-2.80;99.90
50989;DHT22;37008;52.210;21.112;2024-01-11T09:47:55;-2.80;99.90
50989;DHT22;37008;52.210;21.112;2024-01-11T09:50:21;-2.80;99.90
50989;DHT22;37008;52.210;21.112;2024-01-11T09:52:49;-2.80;99.90
50989;DHT22;37008;52.210;21.112;2024-01-11T09:55:15;-2.80;99.90
50989;DHT22;37008;52.210;21.112;2024-01-11T09:57:44;-2.80;99.90
50989;DHT22;37008;52.210;21.112;2024-01-11T10:00:13;-2.70;99.90
50989;DHT22;37008;52.210;21.112;2024-01-11T10:02:39;-2.70;99.90
50989;DHT22;37008;52.210;21.112;2024-01-11T10:05:05;-2.70;99.90
50989;DHT22;37008;52.210;21.112;2024-01-11T10:07:32;-2.70;99.90
50989;DHT22;37008;52.210;21.112;2024-01-11T10:09:59;-2.70;99.90
50989;DHT22;37008;52.210;21.112;2024-01-11T10:12:27;-2.70;99.90
50989;DHT22;37008;52.210;21.112;2024-01-11T10:14:53;-2.70;99.90
50989;DHT22;37008;52.210;21.112;2024-01-11T10:17:19;-2.70;99.90
50989;DHT22;37008;52.210;21.112;2024-01-11T10:19:44;-2.70;99.90
50989;DHT22;37008;52.210;21.112;2024-01-11T10:22:12;-2.70;99.90
50989;DHT22;37008;52.210;21.112;2024-01-11T10:24:41;-2.60;99.90
50989;DHT22;37008;52.210;21.112;2024-01-11T10:27:09;-2.70;99.90
50989;DHT22;37008;52.210;21.112;2024-01-11T10:29:36;-2.60;99.90
50989;DHT22;37008;52.210;21.112;2024-01-11T10:32:03;-2.60;99.90
50989;DHT22;37008;52.210;21.112;2024-01-11T10:34:29;-2.50;99.90
50989;DHT22;37008;52.210;21.112;2024-01-11T10:36:55;-2.50;99.90
50989;DHT22;37008;52.210;21.112;2024-01-11T10:39:25;-2.50;99.90
50989;DHT22;37008;52.210;21.112;2024-01-11T10:41:56;-2.50;99.90
50989;DHT22;37008;52.210;21.112;2024-01-11T10:44:26;-2.40;99.90
50989;DHT22;37008;52.210;21.112;2024-01-11T10:46:56;-2.40;99.90
50989;DHT22;37008;52.210;21.112;2024-01-11T10:49:25;-2.40;99.90
50989;DHT22;37008;52.210;21.112;2024-01-11T10:52:02;-2.30;99.90
50989;DHT22;37008;52.210;21.112;2024-01-11T10:54:28;-2.30;99.90
50989;DHT22;37008;52.210;21.112;2024-01-11T10:56:56;-2.20;99.90
50989;DHT22;37008;52.210;21.112;2024-01-11T10:59:26;-2.20;99.90
50989;DHT22;37008;52.210;21.112;2024-01-11T11:01:53;-2.20;99.90
50989;DHT22;37008;52.210;21.112;2024-01-11T11:04:23;-2.20;99.90
50989;DHT22;37008;52.210;21.112;2024-01-11T11:06:55;-2.20;99.90
50989;DHT22;37008;52.210;21.112;2024-01-11T11:09:25;-2.20;99.90
50989;DHT22;37008;52.210;21.112;2024-01-11T11:11:54;-2.10;99.90
50989;DHT22;37008;52.210;21.112;2024-01-11T11:14:22;-2.10;99.90
50989;DHT22;37008;52.210;21.112;2024-01-11T11:16:48;-2.10;99.90
50989;DHT22;37008;52.210;21.112;2024-01-11T11:19:14;-2.10;99.90
50989;DHT22;37008;52.210;21.112;2024-01-11T11:21:43;-2.10;99.90
50989;DHT22;37008;52.210;21.112;2024-01-11T11:24:10;-2.10;99.90
50989;DHT22;37008;52.210;21.112;2024-01-11T11:26:36;-2.00;99.90
50989;DHT22;37008;52.210;21.112;2024-01-11T11:29:03;-2.00;99.90
50989;DHT22;37008;52.210;21.112;2024-01-11T11:31:41;-2.00;99.90
50989;DHT22;37008;52.210;21.112;2024-01-11T11:34:06;-2.00;99.90
50989;DHT22;37008;52.210;21.112;2024-01-11T11:36:33;-2.00;99.90
50989;DHT22;37008;52.210;21.112;2024-01-11T11:39:01;-2.00;99.90
50989;DHT22;37008;52.210;21.112;2024-01-11T11:41:27;-2.00;99.90
50989;DHT22;37008;52.210;21.112;2024-01-11T11:43:53;-2.00;99.90
50989;DHT22;37008;52.210;21.112;2024-01-11T11:46:19;-2.10;99.90
50989;DHT22;37008;52.210;21.112;2024-01-11T11:48:51;-2.00;99.90
50989;DHT22;37008;52.210;21.112;2024-01-11T11:51:22;-2.10;99.90
50989;DHT22;37008;52.210;21.112;2024-01-11T11:53:49;-2.10;99.90
50989;DHT22;37008;52.210;21.112;2024-01-11T11:56:17;-1.80;99.90
50989;DHT22;37008;52.210;21.112;2024-01-11T11:58:44;-2.10;99.90
50989;DHT22;37008;52.210;21.112;2024-01-11T12:01:10;-2.10;99.90
50989;DHT22;37008;52.210;21.112;2024-01-11T12:03:38;-2.10;99.90
50989;DHT22;37008;52.210;21.112;2024-01-11T12:06:05;-2.10;99.90
50989;DHT22;37008;52.210;21.112;2024-01-11T12:08:31;-2.10;99.90
50989;DHT22;37008;52.210;21.112;2024-01-11T12:10:57;-2.00;99.90
50989;DHT22;37008;52.210;21.112;2024-01-11T12:13:24;-2.00;99.90
50989;DHT22;37008;52.210;21.112;2024-01-11T12:15:50;-2.00;99.90
50989;DHT22;37008;52.210;21.112;2024-01-11T12:18:16;-2.00;99.90
50989;DHT22;37008;52.210;21.112;2024-01-11T12:20:41;-2.00;99.90
50989;DHT22;37008;52.210;21.112;2024-01-11T12:23:07;-1.90;99.90
50989;DHT22;37008;52.210;21.112;2024-01-11T12:25:33;-1.90;99.90
50989;DHT22;37008;52.210;21.112;2024-01-11T12:27:58;-1.90;99.90
50989;DHT22;37008;52.210;21.112;2024-01-11T12:30:25;-1.80;99.90
50989;DHT22;37008;52.210;21.112;2024-01-11T12:32:53;-1.80;99.90
50989;DHT22;37008;52.210;21.112;2024-01-11T12:35:19;-1.80;99.90
50989;DHT22;37008;52.210;21.112;2024-01-11T12:40:20;-1.70;99.90
50989;DHT22;37008;52.210;21.112;2024-01-11T12:42:46;-1.70;99.90
50989;DHT22;37008;52.210;21.112;2024-01-11T12:45:12;-1.70;99.90
50989;DHT22;37008;52.210;21.112;2024-01-11T12:47:38;-1.70;99.90
50989;DHT22;37008;52.210;21.112;2024-01-11T12:50:04;-1.70;99.90
50989;DHT22;37008;52.210;21.112;2024-01-11T12:52:30;-1.70;99.90
50989;DHT22;37008;52.210;21.112;2024-01-11T12:54:56;-1.70;99.90
50989;DHT22;37008;52.210;21.112;2024-01-11T12:57:25;-1.70;99.90
50989;DHT22;37008;52.210;21.112;2024-01-11T12:59:52;-1.70;99.90
50989;DHT22;37008;52.210;21.112;2024-01-11T13:02:18;-1.60;99.90
50989;DHT22;37008;52.210;21.112;2024-01-11T13:04:43;-1.70;99.90
50989;DHT22;37008;52.210;21.112;2024-01-11T13:07:12;-1.60;99.90
50989;DHT22;37008;52.210;21.112;2024-01-11T13:09:38;-1.60;99.90
50989;DHT22;37008;52.210;21.112;2024-01-11T13:12:04;-1.60;99.90
50989;DHT22;37008;52.210;21.112;2024-01-11T13:14:30;-1.50;99.90
50989;DHT22;37008;52.210;21.112;2024-01-11T13:16:57;-1.50;99.90
50989;DHT22;37008;52.210;21.112;2024-01-11T13:19:23;-1.50;99.90
50989;DHT22;37008;52.210;21.112;2024-01-11T13:21:48;-1.40;99.90
50989;DHT22;37008;52.210;21.112;2024-01-11T13:24:14;-1.40;99.90
50989;DHT22;37008;52.210;21.112;2024-01-11T13:26:40;-1.40;99.90
50989;DHT22;37008;52.210;21.112;2024-01-11T13:29:06;-1.40;99.90
50989;DHT22;37008;52.210;21.112;2024-01-11T13:31:32;-1.40;99.90
50989;DHT22;37008;52.210;21.112;2024-01-11T13:33:58;-1.20;99.90
50989;DHT22;37008;52.210;21.112;2024-01-11T13:36:24;-1.30;99.90
50989;DHT22;37008;52.210;21.112;2024-01-11T13:38:50;-1.30;99.90
50989;DHT22;37008;52.210;21.112;2024-01-11T13:41:16;-1.10;99.90
50989;DHT22;37008;52.210;21.112;2024-01-11T13:43:43;-1.30;99.90
50989;DHT22;37008;52.210;21.112;2024-01-11T13:46:09;-1.20;99.90
50989;DHT22;37008;52.210;21.112;2024-01-11T13:48:35;-1.20;99.90
50989;DHT22;37008;52.210;21.112;2024-01-11T13:51:01;-1.20;99.90
50989;DHT22;37008;52.210;21.112;2024-01-11T13:53:29;-1.10;99.90
50989;DHT22;37008;52.210;21.112;2024-01-11T13:55:57;-1.00;99.90
50989;DHT22;37008;52.210;21.112;2024-01-11T13:58:22;-0.80;99.90
50989;DHT22;37008;52.210;21.112;2024-01-11T14:00:48;-0.80;99.90
50989;DHT22;37008;52.210;21.112;2024-01-11T14:03:14;-1.10;99.90
50989;DHT22;37008;52.210;21.112;2024-01-11T14:05:39;-1.10;99.90
50989;DHT22;37008;52.210;21.112;2024-01-11T14:08:05;-1.10;99.90
50989;DHT22;37008;52.210;21.112;2024-01-11T14:10:33;-1.10;99.90
50989;DHT22;37008;52.210;21.112;2024-01-11T14:13:00;-1.10;99.90
50989;DHT22;37008;52.210;21.112;2024-01-11T14:15:27;-1.10;99.90
50989;DHT22;37008;52.210;21.112;2024-01-11T14:17:53;-1.10;99.90
50989;DHT22;37008;52.210;21.112;2024-01-11T14:20:19;-1.10;99.90
50989;DHT22;37008;52.210;21.112;2024-01-11T14:22:46;-1.00;99.90
50989;DHT22;37008;52.210;21.112;2024-01-11T14:25:16;-1.00;99.90
50989;DHT22;37008;52.210;21.112;2024-01-11T14:27:41;-1.00;99.90
50989;DHT22;37008;52.210;21.112;2024-01-11T14:30:07;-1.00;99.90
50989;DHT22;37008;52.210;21.112;2024-01-11T14:32:34;-1.00;99.90
50989;DHT22;37008;52.210;21.112;2024-01-11T14:35:00;-1.00;99.90
50989;DHT22;37008;52.210;21.112;2024-01-11T14:37:30;-0.30;99.90
50989;DHT22;37008;52.210;21.112;2024-01-11T14:39:56;-0.90;99.90
50989;DHT22;37008;52.210;21.112;2024-01-11T14:42:21;-0.90;99.90
50989;DHT22;37008;52.210;21.112;2024-01-11T14:44:47;-0.90;99.90
50989;DHT22;37008;52.210;21.112;2024-01-11T14:47:13;-0.70;99.90
50989;DHT22;37008;52.210;21.112;2024-01-11T14:49:41;-0.80;99.90
50989;DHT22;37008;52.210;21.112;2024-01-11T14:52:06;-0.80;99.90
50989;DHT22;37008;52.210;21.112;2024-01-11T14:54:32;-0.70;99.90
50989;DHT22;37008;52.210;21.112;2024-01-11T14:56:57;-0.70;99.90
50989;DHT22;37008;52.210;21.112;2024-01-11T14:59:23;-0.60;99.90
50989;DHT22;37008;52.210;21.112;2024-01-11T15:01:49;-0.60;99.90
50989;DHT22;37008;52.210;21.112;2024-01-11T15:04:15;-0.60;99.90
50989;DHT22;37008;52.210;21.112;2024-01-11T15:06:40;-0.50;99.90
50989;DHT22;37008;52.210;21.112;2024-01-11T15:09:06;-0.50;99.90
50989;DHT22;37008;52.210;21.112;2024-01-11T15:11:35;-0.50;99.90